Time;durP1;ratioP1;P1;durP2;ratioP2;P2;SDS_P1;SDS_P2;PMS_P1;PMS_P2;Temp;Humidity;BMP_temperature;BMP_pressure;BME280_temperature;BME280_humidity;BME280_pressure;Samples;Min_cycle;Max_cycle;Signal;HPM_P1;HPM_P2
2021/12/15 00:00:02;;;;;;;28.25;12.93;;;7.10;99.90;;;;;;5071333;28;20327;-74
2021/12/15 00:02:51;;;;;;;22.80;13.80;;;7.10;99.90;;;;;;5050780;28;20255;-74
2021/12/15 00:05:41;;;;;;;29.08;13.80;;;7.10;99.90;;;;;;5051866;28;20208;-74
2021/12/15 00:08:27;;;;;;;23.88;12.05;;;7.00;99.90;;;;;;5051141;28;20251;-74
2021/12/15 00:11:13;;;;;;;27.63;12.75;;;7.00;99.90;;;;;;5051703;28;20565;-74
2021/12/15 00:14:00;;;;;;;24.15;12.32;;;6.90;99.90;;;;;;5054593;28;20281;-74
2021/12/15 00:16:46;;;;;;;27.30;12.02;;;6.90;99.90;;;;;;5068590;28;20696;-74
2021/12/15 00:19:32;;;;;;;23.98;12.10;;;6.90;99.90;;;;;;5070894;28;20331;-74
2021/12/15 00:22:20;;;;;;;25.02;14.07;;;6.90;99.90;;;;;;5069817;28;20216;-76
2021/12/15 00:25:07;;;;;;;25.13;13.95;;;7.00;99.90;;;;;;5062431;28;20205;-75
2021/12/15 00:27:53;;;;;;;28.92;13.10;;;7.00;99.90;;;;;;5066186;28;20220;-76
2021/12/15 00:30:39;;;;;;;25.27;15.10;;;7.10;99.90;;;;;;5057419;28;20216;-76
2021/12/15 00:33:25;;;;;;;29.55;14.02;;;7.10;99.90;;;;;;5069320;28;20492;-76
2021/12/15 00:36:12;;;;;;;45.15;13.95;;;7.10;99.90;;;;;;5065790;28;20266;-76
2021/12/15 00:38:59;;;;;;;27.52;12.80;;;7.10;99.90;;;;;;5063247;28;20203;-76
2021/12/15 00:41:45;;;;;;;27.55;13.52;;;7.00;99.90;;;;;;5068750;28;20270;-76
2021/12/15 00:44:30;;;;;;;22.98;15.02;;;6.90;99.90;;;;;;5063185;28;21364;-75
2021/12/15 00:47:16;;;;;;;30.50;12.90;;;7.00;99.90;;;;;;5066218;28;20267;-76
2021/12/15 00:50:06;;;;;;;18.93;11.60;;;7.00;99.90;;;;;;5067873;28;20970;-76
2021/12/15 00:52:52;;;;;;;28.27;14.07;;;7.00;99.90;;;;;;5060958;28;20610;-76
2021/12/15 00:55:42;;;;;;;18.77;11.82;;;7.10;99.90;;;;;;5059766;28;20723;-77
2021/12/15 00:58:27;;;;;;;41.20;11.32;;;7.10;99.90;;;;;;5064743;28;20236;-76
2021/12/15 01:01:12;;;;;;;17.10;11.32;;;7.20;99.90;;;;;;5060733;28;20331;-76
2021/12/15 01:03:58;;;;;;;30.53;11.50;;;7.10;99.90;;;;;;5065041;28;20338;-75
2021/12/15 01:06:48;;;;;;;15.13;10.45;;;7.10;99.90;;;;;;5062739;28;20827;-76
2021/12/15 01:09:41;;;;;;;46.45;12.15;;;7.10;99.90;;;;;;5064355;28;20204;-76
2021/12/15 01:12:49;;;;;;;40.50;11.20;;;7.20;99.90;;;;;;5070241;28;20344;-76
2021/12/15 01:21:44;;;;;;;19.73;9.73;;;7.00;99.90;;;;;;5065196;28;20693;-76
2021/12/15 01:24:30;;;;;;;51.17;9.13;;;7.00;99.90;;;;;;5061641;28;20355;-76
2021/12/15 01:27:16;;;;;;;13.27;9.27;;;6.90;99.90;;;;;;5064560;28;20744;-76
2021/12/15 01:30:05;;;;;;;10.73;7.55;;;6.90;99.90;;;;;;5065454;28;20200;-76
2021/12/15 01:32:50;;;;;;;10.25;7.47;;;6.90;99.90;;;;;;5063835;28;20207;-76
2021/12/15 01:35:38;;;;;;;17.48;8.30;;;6.90;99.90;;;;;;5063146;28;20200;-76
2021/12/15 01:38:27;;;;;;;10.10;6.90;;;6.90;99.90;;;;;;5064282;28;20199;-77
2021/12/15 01:41:19;;;;;;;22.30;8.05;;;6.80;99.90;;;;;;5065011;28;20290;-76
2021/12/15 01:47:13;;;;;;;13.45;8.05;;;6.90;99.90;;;;;;5063828;28;20236;-76
2021/12/15 01:49:59;;;;;;;12.27;8.18;;;6.90;99.90;;;;;;5066426;28;21008;-76
2021/12/15 01:52:45;;;;;;;63.58;7.78;;;6.90;99.90;;;;;;5065108;28;20377;-76
2021/12/15 01:55:30;;;;;;;13.85;8.02;;;6.90;99.90;;;;;;5064312;28;20212;-76
2021/12/15 01:58:16;;;;;;;17.27;7.03;;;6.80;99.90;;;;;;5076132;22;20260;-73
2021/12/15 02:01:05;;;;;;;15.00;7.40;;;6.80;99.90;;;;;;5062925;28;20599;-73
2021/12/15 02:03:53;;;;;;;8.65;6.20;;;6.70;99.90;;;;;;5062510;28;20223;-73
2021/12/15 02:06:42;;;;;;;22.38;6.97;;;6.50;99.90;;;;;;5071421;28;20353;-73
2021/12/15 02:09:53;;;;;;;11.20;6.82;;;6.60;99.90;;;;;;5082626;28;20688;-73
2021/12/15 02:12:42;;;;;;;11.20;6.80;;;6.50;99.90;;;;;;5083109;28;20677;-74
2021/12/15 02:15:31;;;;;;;8.93;6.47;;;6.50;99.90;;;;;;5078467;28;20746;-74
2021/12/15 02:18:19;;;;;;;26.77;8.00;;;6.50;99.90;;;;;;5081035;28;20224;-74
2021/12/15 02:21:09;;;;;;;16.17;8.23;;;6.50;99.90;;;;;;5086824;28;20203;-74
2021/12/15 02:23:58;;;;;;;30.27;8.27;;;6.60;99.90;;;;;;5080099;28;20258;-74
2021/12/15 02:26:49;;;;;;;19.85;8.00;;;6.60;99.90;;;;;;5082564;28;20215;-74
2021/12/15 02:29:40;;;;;;;11.20;8.40;;;6.60;99.90;;;;;;5082514;28;20196;-73
2021/12/15 02:32:37;;;;;;;11.73;7.78;;;6.60;99.90;;;;;;5084078;28;20195;-73
2021/12/15 02:38:31;;;;;;;16.65;8.43;;;6.70;99.90;;;;;;5082257;28;20234;-73
2021/12/15 02:41:20;;;;;;;19.48;8.68;;;6.50;99.90;;;;;;5077948;28;20278;-73
2021/12/15 02:44:08;;;;;;;23.63;8.65;;;6.50;99.90;;;;;;5079703;28;20758;-73
2021/12/15 02:46:55;;;;;;;10.45;7.35;;;6.50;99.90;;;;;;5078586;28;20341;-73
2021/12/15 02:49:42;;;;;;;14.65;7.70;;;6.40;99.90;;;;;;5083907;28;20207;-73
2021/12/15 02:52:28;;;;;;;14.68;9.20;;;6.40;99.90;;;;;;5076585;28;20330;-73
2021/12/15 02:55:16;;;;;;;18.83;7.93;;;6.40;99.90;;;;;;5078925;28;20725;-73
2021/12/15 02:58:01;;;;;;;28.75;9.18;;;6.40;99.90;;;;;;5087000;28;20362;-73
2021/12/15 03:00:55;;;;;;;33.80;8.98;;;6.40;99.90;;;;;;5078934;28;20831;-73
2021/12/15 03:04:11;;;;;;;18.90;7.32;;;6.50;99.90;;;;;;5075738;28;20342;-73
2021/12/15 03:07:05;;;;;;;18.23;6.65;;;6.30;99.90;;;;;;5081855;28;20227;-74
2021/12/15 03:15:56;;;;;;;8.77;5.80;;;6.30;99.90;;;;;;5079329;28;20222;-73
2021/12/15 03:18:42;;;;;;;10.85;6.93;;;6.30;99.90;;;;;;5076227;28;20219;-72
2021/12/15 03:21:28;;;;;;;13.63;8.27;;;6.40;99.90;;;;;;5075616;28;20225;-73
2021/12/15 03:24:19;;;;;;;12.20;7.00;;;6.30;99.90;;;;;;5076820;28;20212;-73
2021/12/15 03:27:11;;;;;;;12.88;7.78;;;6.30;99.90;;;;;;5078469;28;20216;-73
2021/12/15 03:36:12;;;;;;;21.75;6.95;;;6.30;99.90;;;;;;5084902;28;20245;-73
2021/12/15 03:38:58;;;;;;;9.50;7.32;;;6.10;99.90;;;;;;5081665;28;20199;-73
2021/12/15 03:41:43;;;;;;;9.05;6.50;;;6.00;99.90;;;;;;5084782;28;20208;-73
2021/12/15 03:44:31;;;;;;;8.55;6.57;;;6.10;99.90;;;;;;5075095;28;20199;-73
2021/12/15 03:47:22;;;;;;;11.38;7.63;;;6.10;99.90;;;;;;5082647;28;20223;-73
2021/12/15 03:50:12;;;;;;;12.70;6.00;;;6.10;99.90;;;;;;5078592;28;21344;-73
2021/12/15 03:52:58;;;;;;;12.20;6.88;;;6.20;99.90;;;;;;5075911;28;20326;-73
2021/12/15 03:55:46;;;;;;;10.25;7.15;;;6.10;99.90;;;;;;5085509;28;20293;-73
2021/12/15 03:58:31;;;;;;;12.70;7.95;;;6.10;99.90;;;;;;5080881;28;20243;-73
2021/12/15 04:01:21;;;;;;;12.82;6.18;;;6.20;99.90;;;;;;5081260;28;20309;-74
2021/12/15 04:04:08;;;;;;;8.95;6.60;;;6.30;99.90;;;;;;5075812;28;20281;-73
2021/12/15 04:06:54;;;;;;;9.02;5.93;;;6.30;99.90;;;;;;5081078;28;20346;-73
2021/12/15 04:09:41;;;;;;;9.43;6.18;;;6.20;99.90;;;;;;5079461;28;20562;-73
2021/12/15 04:12:27;;;;;;;11.27;6.70;;;6.20;99.90;;;;;;5075120;28;20203;-73
2021/12/15 04:15:27;;;;;;;17.77;7.38;;;6.20;99.90;;;;;;5079948;28;20559;-73
2021/12/15 04:18:13;;;;;;;8.02;6.50;;;6.10;99.90;;;;;;5081578;28;20774;-73
2021/12/15 04:21:01;;;;;;;8.52;6.80;;;6.00;99.90;;;;;;5077701;28;20204;-73
2021/12/15 04:23:50;;;;;;;8.52;5.93;;;6.10;99.90;;;;;;5077061;28;20699;-74
2021/12/15 04:26:35;;;;;;;8.82;6.75;;;6.20;99.90;;;;;;5080693;28;20223;-74
2021/12/15 04:29:21;;;;;;;9.18;6.57;;;6.20;99.90;;;;;;5080834;28;20330;-73
2021/12/15 04:32:10;;;;;;;9.18;6.97;;;6.20;99.90;;;;;;5075459;28;20347;-74
2021/12/15 04:34:56;;;;;;;8.70;6.18;;;6.30;99.90;;;;;;5083317;28;20204;-74
2021/12/15 04:37:45;;;;;;;8.82;6.50;;;6.30;99.90;;;;;;5083528;28;20223;-74
2021/12/15 04:40:31;;;;;;;8.75;6.57;;;6.30;99.90;;;;;;5080017;28;20207;-73
2021/12/15 04:43:17;;;;;;;8.55;6.22;;;6.30;99.90;;;;;;5082949;28;20203;-74
2021/12/15 04:46:04;;;;;;;8.30;5.82;;;6.40;99.90;;;;;;5082731;28;20289;-74
2021/12/15 04:48:50;;;;;;;8.75;6.32;;;6.20;99.90;;;;;;5078179;28;20200;-74
2021/12/15 04:51:36;;;;;;;7.70;5.50;;;6.10;99.90;;;;;;5078531;28;20567;-73
2021/12/15 04:54:23;;;;;;;9.00;5.63;;;6.00;99.90;;;;;;5078655;28;20660;-73
2021/12/15 04:57:09;;;;;;;7.60;5.93;;;5.90;99.90;;;;;;5076307;28;20401;-74
2021/12/15 04:59:58;;;;;;;16.88;7.18;;;5.80;99.90;;;;;;5079008;28;20342;-73
2021/12/15 05:02:44;;;;;;;10.02;7.18;;;5.80;99.90;;;;;;5076978;28;20211;-74
2021/12/15 05:05:30;;;;;;;7.53;6.55;;;5.70;99.90;;;;;;5083441;28;20269;-74
2021/12/15 05:08:15;;;;;;;7.72;6.15;;;5.70;99.90;;;;;;5076206;28;20223;-73
2021/12/15 05:11:03;;;;;;;8.45;6.35;;;5.70;99.90;;;;;;5083434;28;20680;-74
2021/12/15 05:13:49;;;;;;;9.50;6.72;;;5.80;99.90;;;;;;5081048;28;20259;-74
2021/12/15 05:16:35;;;;;;;7.85;5.97;;;5.90;99.90;;;;;;5087214;28;20227;-74
2021/12/15 05:19:21;;;;;;;8.70;6.40;;;5.90;99.90;;;;;;5083884;28;20301;-74
2021/12/15 05:22:07;;;;;;;7.93;6.38;;;5.90;99.90;;;;;;5086894;28;20285;-74
2021/12/15 05:24:52;;;;;;;7.45;5.15;;;6.00;99.90;;;;;;5080281;28;20206;-74
2021/12/15 05:27:40;;;;;;;6.78;5.60;;;6.10;99.90;;;;;;5083684;28;20223;-73
2021/12/15 05:30:26;;;;;;;8.57;5.50;;;6.10;99.90;;;;;;5086009;28;20211;-74
2021/12/15 05:33:12;;;;;;;7.82;5.22;;;6.10;99.90;;;;;;5084878;28;20583;-74
2021/12/15 05:35:57;;;;;;;10.95;5.60;;;6.10;99.90;;;;;;5084202;28;20266;-74
2021/12/15 05:38:43;;;;;;;8.57;5.95;;;6.10;99.90;;;;;;5083462;28;20578;-74
2021/12/15 05:41:29;;;;;;;7.65;5.55;;;6.20;99.90;;;;;;5081092;28;20207;-73
2021/12/15 05:44:16;;;;;;;9.25;5.10;;;6.20;99.90;;;;;;5090008;28;20688;-74
2021/12/15 05:47:05;;;;;;;7.32;5.20;;;6.00;99.90;;;;;;5086186;28;20227;-74
2021/12/15 05:49:51;;;;;;;7.65;5.05;;;5.90;99.90;;;;;;5080920;28;20208;-74
2021/12/15 05:52:38;;;;;;;7.00;4.85;;;5.80;99.90;;;;;;5081923;28;20214;-74
2021/12/15 05:55:24;;;;;;;6.85;4.68;;;5.70;99.90;;;;;;5084064;28;20314;-74
2021/12/15 05:58:10;;;;;;;9.45;4.78;;;5.70;99.90;;;;;;5083556;28;20247;-73
2021/12/15 06:00:57;;;;;;;6.05;4.90;;;5.70;99.90;;;;;;5079341;28;20204;-73
2021/12/15 06:03:43;;;;;;;6.15;4.32;;;5.70;99.90;;;;;;5085383;28;20202;-73
2021/12/15 06:06:30;;;;;;;6.32;5.07;;;5.60;99.90;;;;;;5085448;28;20366;-73
2021/12/15 06:09:15;;;;;;;6.03;5.40;;;5.60;99.90;;;;;;5083689;28;20199;-73
2021/12/15 06:12:03;;;;;;;6.95;4.78;;;5.70;99.90;;;;;;5079575;28;20270;-73
2021/12/15 06:14:48;;;;;;;12.80;4.97;;;5.60;99.90;;;;;;5082698;28;20448;-73
2021/12/15 06:17:36;;;;;;;8.07;5.20;;;5.70;99.90;;;;;;5082710;28;20235;-74
2021/12/15 06:20:21;;;;;;;12.60;5.68;;;5.60;99.90;;;;;;5080328;28;20200;-73
2021/12/15 06:23:11;;;;;;;8.82;6.90;;;5.60;99.90;;;;;;5080809;28;20711;-73
2021/12/15 06:25:59;;;;;;;10.95;7.22;;;5.50;99.90;;;;;;5084502;28;20196;-74
2021/12/15 06:28:45;;;;;;;11.75;6.60;;;5.50;99.90;;;;;;5081123;28;20712;-73
2021/12/15 06:31:30;;;;;;;8.25;6.63;;;5.50;99.90;;;;;;5078905;28;20238;-74
2021/12/15 06:34:17;;;;;;;8.45;6.88;;;5.50;99.90;;;;;;5088291;28;20203;-74
2021/12/15 06:37:04;;;;;;;8.85;5.88;;;5.50;99.90;;;;;;5085780;28;20231;-73
2021/12/15 06:39:49;;;;;;;9.32;5.90;;;5.50;99.90;;;;;;5082521;28;20696;-73
2021/12/15 06:42:35;;;;;;;7.72;5.70;;;5.50;99.90;;;;;;5076660;28;21379;-73
2021/12/15 06:45:28;;;;;;;9.02;5.80;;;5.50;99.90;;;;;;5085864;28;20205;-73
2021/12/15 06:58:10;;;;;;;10.15;5.97;;;5.80;99.90;;;;;;5060570;28;20696;-73
2021/12/15 07:00:41;;;;;;;10.77;7.00;;;5.90;99.90;;;;;;5081602;28;20271;-73
2021/12/15 07:03:27;;;;;;;7.20;5.88;;;6.00;99.90;;;;;;5081650;28;20253;-74
2021/12/15 07:06:13;;;;;;;11.35;7.40;;;6.00;99.90;;;;;;5086237;28;20579;-74
2021/12/15 07:09:00;;;;;;;13.13;6.85;;;6.10;99.90;;;;;;5083127;28;20322;-73
2021/12/15 07:11:46;;;;;;;11.80;7.68;;;6.10;99.90;;;;;;5078353;28;20207;-73
2021/12/15 07:14:32;;;;;;;9.95;7.30;;;6.10;99.90;;;;;;5081554;28;20210;-73
2021/12/15 07:17:22;;;;;;;11.05;9.70;;;6.20;99.90;;;;;;5082625;28;20270;-74
2021/12/15 07:20:31;;;;;;;28.70;16.02;;;6.10;99.90;;;;;;5085795;28;20211;-73
2021/12/15 07:23:18;;;;;;;21.25;11.85;;;5.90;99.90;;;;;;5080398;28;20669;-73
2021/12/15 07:26:06;;;;;;;19.52;10.95;;;5.90;99.90;;;;;;5084321;28;20211;-73
2021/12/15 07:28:51;;;;;;;18.05;10.63;;;5.70;99.90;;;;;;5080701;28;20202;-73
2021/12/15 07:31:37;;;;;;;13.07;9.02;;;5.70;99.90;;;;;;5082053;28;20226;-73
2021/12/15 07:34:23;;;;;;;17.95;9.88;;;5.70;99.90;;;;;;5082166;28;20623;-73
2021/12/15 07:37:10;;;;;;;13.20;9.05;;;5.70;99.90;;;;;;5083313;28;20223;-73
2021/12/15 07:39:58;;;;;;;14.30;9.63;;;5.80;99.90;;;;;;5079650;28;20685;-73
2021/12/15 07:42:56;;;;;;;12.13;8.90;;;5.80;99.90;;;;;;5077901;28;20253;-73
2021/12/15 07:45:44;;;;;;;12.48;8.65;;;5.90;99.90;;;;;;5084223;28;20224;-73
2021/12/15 07:48:34;;;;;;;13.25;9.68;;;6.00;99.90;;;;;;5077036;28;20327;-73
2021/12/15 07:51:20;;;;;;;11.95;8.23;;;6.10;99.90;;;;;;5075940;28;20575;-73
2021/12/15 07:54:05;;;;;;;52.47;25.17;;;6.10;99.90;;;;;;5079901;28;20211;-73
2021/12/15 07:56:51;;;;;;;20.48;13.55;;;6.10;99.90;;;;;;5085869;28;20597;-73
2021/12/15 07:59:39;;;;;;;17.17;12.07;;;6.10;99.90;;;;;;5083459;28;20262;-72
2021/12/15 08:02:24;;;;;;;16.35;11.10;;;6.10;99.90;;;;;;5077256;28;20200;-72
2021/12/15 08:05:11;;;;;;;15.75;11.07;;;6.20;99.90;;;;;;5080706;28;20573;-73
2021/12/15 08:07:56;;;;;;;18.60;10.23;;;6.20;99.90;;;;;;5079887;28;20230;-73
2021/12/15 08:10:42;;;;;;;17.85;10.88;;;6.30;99.90;;;;;;5078381;28;20199;-72
2021/12/15 08:13:31;;;;;;;25.73;15.43;;;6.40;99.90;;;;;;5081062;28;20228;-72
2021/12/15 08:16:19;;;;;;;18.60;14.60;;;6.40;99.90;;;;;;5084512;28;20285;-73
2021/12/15 08:19:07;;;;;;;20.98;15.25;;;6.40;99.90;;;;;;5084144;28;20227;-73
2021/12/15 08:21:52;;;;;;;16.63;12.80;;;6.40;99.90;;;;;;5078449;28;20589;-73
2021/12/15 08:24:38;;;;;;;21.40;14.50;;;6.50;99.90;;;;;;5079783;28;20196;-73
2021/12/15 08:27:24;;;;;;;23.50;14.43;;;6.40;99.90;;;;;;5081219;28;20290;-73
2021/12/15 08:30:12;;;;;;;21.30;13.95;;;6.50;99.90;;;;;;5080846;28;20212;-72
2021/12/15 08:33:02;;;;;;;15.68;11.60;;;6.50;99.90;;;;;;5076782;28;20211;-73
2021/12/15 08:35:51;;;;;;;19.15;12.48;;;6.50;99.90;;;;;;5082869;28;20219;-72
2021/12/15 08:38:39;;;;;;;16.88;11.15;;;6.60;99.90;;;;;;5080574;28;20254;-73
2021/12/15 08:41:28;;;;;;;18.52;10.93;;;6.50;99.90;;;;;;5076327;28;20673;-73
2021/12/15 08:44:14;;;;;;;15.70;10.70;;;6.50;99.90;;;;;;5079223;28;20564;-72
2021/12/15 08:47:00;;;;;;;14.30;10.70;;;6.50;99.90;;;;;;5088611;28;20268;-72
2021/12/15 08:49:47;;;;;;;13.77;11.55;;;6.50;99.90;;;;;;5083656;28;20666;-72
2021/12/15 08:52:33;;;;;;;12.30;10.15;;;6.50;99.90;;;;;;5085122;28;20338;-73
2021/12/15 08:55:19;;;;;;;18.85;10.73;;;6.50;99.90;;;;;;5087544;28;20208;-72
2021/12/15 08:58:06;;;;;;;15.00;10.73;;;6.60;99.90;;;;;;5087937;28;20282;-73
2021/12/15 09:00:56;;;;;;;15.07;11.05;;;6.80;99.90;;;;;;5080057;28;20204;-73
2021/12/15 09:03:43;;;;;;;17.98;10.07;;;6.80;99.90;;;;;;5084371;28;20564;-72
2021/12/15 09:06:30;;;;;;;15.80;10.90;;;6.90;99.90;;;;;;5083149;28;20848;-72
2021/12/15 09:09:17;;;;;;;15.00;11.50;;;7.00;99.90;;;;;;5084966;28;20196;-72
2021/12/15 09:12:04;;;;;;;14.93;10.73;;;7.00;99.90;;;;;;5085599;28;20282;-73
2021/12/15 09:14:50;;;;;;;15.43;10.00;;;7.10;99.90;;;;;;5087865;28;20679;-72
2021/12/15 09:17:36;;;;;;;11.73;10.00;;;7.10;99.90;;;;;;5083925;28;20240;-73
2021/12/15 09:20:24;;;;;;;13.73;9.38;;;7.10;99.90;;;;;;5085283;28;20223;-73
2021/12/15 09:23:15;;;;;;;13.32;9.70;;;7.10;99.90;;;;;;5081414;28;20203;-72
2021/12/15 09:26:03;;;;;;;13.20;10.48;;;7.00;99.90;;;;;;5083364;28;20245;-72
2021/12/15 09:28:50;;;;;;;19.33;13.85;;;7.00;99.90;;;;;;5080598;28;20206;-72
2021/12/15 09:31:37;;;;;;;18.13;14.63;;;7.10;99.90;;;;;;5086468;28;20199;-73
2021/12/15 09:34:23;;;;;;;20.63;16.48;;;7.10;99.90;;;;;;5083420;28;20568;-72
2021/12/15 09:37:08;;;;;;;15.00;11.10;;;7.20;99.90;;;;;;5090492;28;20220;-72
2021/12/15 09:39:56;;;;;;;16.63;10.23;;;7.30;99.90;;;;;;5078696;28;20290;-73
2021/12/15 09:42:41;;;;;;;15.93;11.43;;;7.40;99.90;;;;;;5081171;28;20271;-72
2021/12/15 09:45:38;;;;;;;13.77;11.00;;;7.50;99.90;;;;;;5086137;28;20208;-72
2021/12/15 10:01:53;;;;;;;13.05;9.75;;;7.80;99.90;;;;;;5078803;28;20266;-73
2021/12/15 10:04:18;;;;;;;15.07;11.25;;;7.90;99.90;;;;;;5081425;28;20283;-72
2021/12/15 10:07:19;;;;;;;15.38;11.15;;;8.00;99.90;;;;;;5086950;28;20219;-72
2021/12/15 10:19:41;;;;;;;18.30;11.90;;;8.10;99.90;;;;;;5078053;28;20215;-72
2021/12/15 10:22:34;;;;;;;16.40;10.95;;;8.10;99.90;;;;;;5084530;28;20200;-72
2021/12/15 10:25:24;;;;;;;16.45;11.55;;;8.10;99.90;;;;;;5082864;28;20257;-72
2021/12/15 10:28:12;;;;;;;15.95;10.20;;;8.20;99.90;;;;;;5082433;28;20239;-73
2021/12/15 10:31:01;;;;;;;13.60;10.32;;;8.20;99.90;;;;;;5079815;28;20200;-73
2021/12/15 10:33:50;;;;;;;17.70;11.50;;;8.30;99.90;;;;;;5089746;28;20204;-73
2021/12/15 10:36:35;;;;;;;13.30;10.38;;;8.40;99.90;;;;;;5090330;28;20705;-73
2021/12/15 10:39:22;;;;;;;19.17;11.60;;;8.40;99.90;;;;;;5077697;28;20262;-72
2021/12/15 10:42:07;;;;;;;14.77;11.57;;;8.40;99.90;;;;;;5086204;28;20505;-73
2021/12/15 10:45:06;;;;;;;17.15;11.23;;;8.40;99.90;;;;;;5089345;28;20454;-72
2021/12/15 10:47:53;;;;;;;18.27;11.30;;;8.40;99.90;;;;;;5084948;28;20687;-72
2021/12/15 10:50:41;;;;;;;20.92;14.70;;;8.40;99.90;;;;;;5082227;28;20196;-73
2021/12/15 10:53:33;;;;;;;19.50;13.57;;;8.50;99.90;;;;;;5089619;28;20215;-73
2021/12/15 10:56:21;;;;;;;20.15;14.30;;;8.50;99.90;;;;;;5081066;28;20333;-73
2021/12/15 10:59:10;;;;;;;17.40;13.07;;;8.50;99.90;;;;;;5084549;28;20613;-72
2021/12/15 11:01:59;;;;;;;17.35;12.88;;;8.50;99.90;;;;;;5084336;28;20596;-73
2021/12/15 11:04:47;;;;;;;21.80;14.32;;;8.60;99.90;;;;;;5088529;28;20204;-73
2021/12/15 11:07:34;;;;;;;23.52;15.60;;;8.80;99.90;;;;;;5084489;28;20220;-73
2021/12/15 11:10:22;;;;;;;14.57;12.63;;;9.00;99.90;;;;;;5084481;28;20208;-73
2021/12/15 11:13:10;;;;;;;16.50;12.35;;;9.20;99.90;;;;;;5084020;28;20275;-73
2021/12/15 11:15:56;;;;;;;15.25;11.10;;;9.20;99.90;;;;;;5086270;28;20207;-73
2021/12/15 11:18:41;;;;;;;17.50;11.83;;;9.30;99.90;;;;;;5080839;28;20200;-73
2021/12/15 11:21:32;;;;;;;14.53;11.93;;;9.30;99.90;;;;;;5083843;28;20967;-73
2021/12/15 11:24:22;;;;;;;13.33;10.67;;;9.40;99.90;;;;;;5083354;28;20442;-73
2021/12/15 11:27:17;;;;;;;14.30;12.27;;;9.40;99.90;;;;;;5084081;28;20939;-73
2021/12/15 11:30:05;;;;;;;20.87;14.17;;;9.40;99.90;;;;;;5077526;28;20446;-73
2021/12/15 11:32:54;;;;;;;19.67;14.17;;;9.50;99.90;;;;;;5081955;28;20557;-73
2021/12/15 11:35:45;;;;;;;16.30;13.53;;;9.50;99.90;;;;;;5088151;28;20563;-73
2021/12/15 11:38:34;;;;;;;19.80;13.40;;;9.50;99.90;;;;;;5079529;28;20544;-73
2021/12/15 11:41:23;;;;;;;16.17;12.10;;;9.50;99.90;;;;;;5087401;28;21061;-73
2021/12/15 11:44:12;;;;;;;15.10;12.17;;;9.50;99.90;;;;;;5080200;28;20513;-73
2021/12/15 11:47:01;;;;;;;17.13;12.30;;;9.50;99.90;;;;;;5080378;28;20461;-73
2021/12/15 11:49:46;;;;;;;16.50;11.70;;;9.50;99.90;;;;;;5082258;28;20438;-73
2021/12/15 11:52:39;;;;;;;19.43;12.17;;;9.50;99.90;;;;;;5074545;28;20442;-73
2021/12/15 11:55:29;;;;;;;16.80;12.40;;;9.50;99.90;;;;;;5084994;28;21073;-73
2021/12/15 11:58:15;;;;;;;16.50;11.93;;;9.50;99.90;;;;;;5082119;28;20612;-73
2021/12/15 12:01:01;;;;;;;16.17;12.20;;;9.40;99.90;;;;;;5081369;28;20469;-73
2021/12/15 12:04:10;;;;;;;11.90;9.40;;;9.50;99.90;;;;;;5089484;28;20819;-73
2021/12/15 12:07:09;;;;;;;11.87;10.10;;;9.50;99.90;;;;;;5085832;28;20469;-74
2021/12/15 12:09:58;;;;;;;13.17;9.00;;;9.40;99.90;;;;;;5083212;28;21068;-73
2021/12/15 12:12:51;;;;;;;11.17;9.40;;;9.40;99.90;;;;;;5083522;28;20880;-73
2021/12/15 12:15:40;;;;;;;12.07;8.63;;;9.40;99.90;;;;;;5086655;28;20457;-73
2021/12/15 12:18:28;;;;;;;11.27;8.00;;;9.50;99.90;;;;;;5081589;28;20540;-73
2021/12/15 12:21:14;;;;;;;9.80;7.75;;;9.30;99.90;;;;;;5093118;28;20473;-73
2021/12/15 12:24:00;;;;;;;9.30;8.03;;;9.30;99.90;;;;;;5087989;28;20570;-73
2021/12/15 12:26:46;;;;;;;10.30;7.07;;;9.40;99.90;;;;;;5089750;28;20466;-73
2021/12/15 12:29:34;;;;;;;7.85;6.75;;;9.40;99.90;;;;;;5084097;28;20454;-72
2021/12/15 12:32:20;;;;;;;8.13;5.20;;;9.40;99.90;;;;;;5091803;28;20676;-73
2021/12/15 12:35:08;;;;;;;7.93;6.73;;;9.40;99.90;;;;;;5082224;28;20450;-73
2021/12/15 12:37:56;;;;;;;11.18;8.68;;;9.50;99.90;;;;;;5088556;28;20808;-73
2021/12/15 12:40:50;;;;;;;10.83;9.23;;;9.50;99.90;;;;;;5086398;28;20358;-73
2021/12/15 12:43:40;;;;;;;10.00;8.60;;;9.70;99.90;;;;;;5087933;28;20445;-73
2021/12/15 12:46:35;;;;;;;11.20;8.67;;;9.70;99.90;;;;;;5089993;28;20451;-73
2021/12/15 12:49:53;;;;;;;9.23;7.97;;;9.70;99.90;;;;;;5084823;28;20449;-73
2021/12/15 13:01:51;;;;;;;10.37;8.20;;;9.70;99.90;;;;;;5087640;28;20446;-73
2021/12/15 13:04:40;;;;;;;9.80;8.43;;;9.70;99.90;;;;;;5083054;28;20446;-73
2021/12/15 13:07:48;;;;;;;9.50;7.90;;;9.70;99.90;;;;;;5090529;28;20998;-73
2021/12/15 13:11:09;;;;;;;11.27;9.57;;;9.70;99.90;;;;;;5088221;28;20441;-73
2021/12/15 13:14:01;;;;;;;14.90;8.83;;;9.80;99.90;;;;;;4997130;28;20445;-73
2021/12/15 13:16:50;;;;;;;10.77;8.50;;;9.80;99.90;;;;;;5084581;28;20458;-73
2021/12/15 13:19:44;;;;;;;10.60;8.40;;;9.70;99.90;;;;;;5082175;28;20469;-73
2021/12/15 13:22:40;;;;;;;11.83;8.60;;;9.60;99.90;;;;;;5090781;28;20512;-74
2021/12/15 13:28:44;;;;;;;11.80;10.20;;;9.50;99.90;;;;;;5090349;28;20472;-73
2021/12/15 13:31:30;;;;;;;12.53;9.40;;;9.50;99.90;;;;;;5089584;28;20433;-73
2021/12/15 13:34:40;;;;;;;12.90;9.80;;;9.50;99.90;;;;;;5086495;28;20433;-73
2021/12/15 13:37:52;;;;;;;11.57;8.27;;;9.50;99.90;;;;;;5080399;28;20544;-73
2021/12/15 13:41:24;;;;;;;11.67;8.80;;;9.50;99.90;;;;;;5084781;28;21017;-73
2021/12/15 13:44:20;;;;;;;13.17;9.60;;;9.50;99.90;;;;;;5082024;28;20569;-73
2021/12/15 13:47:17;;;;;;;12.00;8.70;;;9.50;99.90;;;;;;5075922;28;20465;-72
2021/12/15 13:50:16;;;;;;;14.83;11.57;;;9.50;99.90;;;;;;5083316;28;20549;-73
2021/12/15 13:53:03;;;;;;;13.00;10.63;;;9.50;99.90;;;;;;5082551;28;20450;-73
2021/12/15 13:55:48;;;;;;;11.00;8.67;;;9.50;99.90;;;;;;5083850;28;20536;-73
2021/12/15 13:58:34;;;;;;;11.57;8.50;;;9.50;99.90;;;;;;5069023;22;20517;-73
2021/12/15 14:01:20;;;;;;;11.20;7.80;;;9.50;99.90;;;;;;5052759;28;20467;-73
2021/12/15 14:04:05;;;;;;;10.30;8.07;;;9.50;99.90;;;;;;5049221;28;20440;-73
2021/12/15 14:06:52;;;;;;;11.10;8.13;;;9.50;99.90;;;;;;5047224;28;20471;-73
2021/12/15 14:09:38;;;;;;;9.40;7.93;;;9.50;99.90;;;;;;5049082;28;20446;-73
2021/12/15 14:12:51;;;;;;;10.43;7.73;;;9.50;99.90;;;;;;5051647;28;20902;-74
2021/12/15 14:15:48;;;;;;;12.10;8.90;;;9.50;99.90;;;;;;5041847;28;20460;-74
2021/12/15 14:18:35;;;;;;;12.00;8.03;;;9.50;99.90;;;;;;5042118;28;20514;-74
2021/12/15 14:21:21;;;;;;;15.30;8.97;;;9.50;99.90;;;;;;5049806;28;20461;-74
2021/12/15 14:24:09;;;;;;;10.53;8.77;;;9.40;99.90;;;;;;5051248;28;20465;-73
2021/12/15 14:26:55;;;;;;;9.67;7.90;;;9.50;99.90;;;;;;5054749;28;20463;-74
2021/12/15 14:29:42;;;;;;;12.50;8.57;;;9.50;99.90;;;;;;5048176;28;20493;-74
2021/12/15 14:32:29;;;;;;;13.60;9.13;;;9.50;99.90;;;;;;5045363;28;20493;-73
2021/12/15 14:35:18;;;;;;;15.63;8.70;;;9.50;99.90;;;;;;5048273;28;20919;-73
2021/12/15 14:38:03;;;;;;;11.87;7.93;;;9.50;99.90;;;;;;5044947;28;20443;-73
2021/12/15 14:40:50;;;;;;;10.03;7.70;;;9.50;99.90;;;;;;5049130;28;20533;-74
2021/12/15 14:43:36;;;;;;;9.90;7.82;;;9.50;99.90;;;;;;5049166;28;20451;-73
2021/12/15 14:46:26;;;;;;;12.90;7.57;;;9.40;99.90;;;;;;5048356;28;20275;-74
2021/12/15 14:49:18;;;;;;;10.73;8.73;;;9.30;99.90;;;;;;5050725;28;20209;-73
2021/12/15 14:52:08;;;;;;;14.03;8.93;;;9.30;99.90;;;;;;5046159;28;20511;-74
2021/12/15 14:54:56;;;;;;;13.07;8.10;;;9.20;99.90;;;;;;5040232;28;20447;-73
2021/12/15 14:57:44;;;;;;;10.50;7.60;;;9.20;99.90;;;;;;5058065;28;20463;-73
2021/12/15 15:00:35;;;;;;;12.60;9.63;;;9.10;99.90;;;;;;5049475;28;20475;-74
2021/12/15 15:03:20;;;;;;;10.63;8.67;;;9.10;99.90;;;;;;5044609;28;20456;-74
2021/12/15 15:06:06;;;;;;;11.38;7.57;;;9.00;99.90;;;;;;5047022;28;20848;-73
2021/12/15 15:08:52;;;;;;;13.90;9.17;;;9.00;99.90;;;;;;5048656;28;20221;-74
2021/12/15 15:11:37;;;;;;;17.83;9.45;;;8.90;99.90;;;;;;5045128;28;20830;-73
2021/12/15 15:14:31;;;;;;;20.88;9.70;;;8.90;99.90;;;;;;5037986;28;20207;-74
2021/12/15 15:17:27;;;;;;;13.43;9.23;;;8.90;99.90;;;;;;5045965;28;20378;-73
2021/12/15 15:20:17;;;;;;;13.93;9.38;;;8.90;99.90;;;;;;5050536;28;20737;-73
2021/12/15 15:23:05;;;;;;;11.13;8.17;;;8.90;99.90;;;;;;5042279;28;20212;-74
2021/12/15 15:25:53;;;;;;;9.83;7.40;;;8.90;99.90;;;;;;5047665;28;20447;-73
2021/12/15 15:28:43;;;;;;;14.20;7.10;;;8.80;99.90;;;;;;5047973;28;20459;-74
2021/12/15 15:31:34;;;;;;;10.33;8.13;;;8.80;99.90;;;;;;5051275;28;20193;-74
2021/12/15 15:34:25;;;;;;;10.43;7.53;;;8.80;99.90;;;;;;5045372;28;20961;-73
2021/12/15 15:37:21;;;;;;;10.85;7.35;;;8.80;99.90;;;;;;5038206;28;20821;-73
2021/12/15 15:40:22;;;;;;;11.00;7.40;;;8.70;99.90;;;;;;5048347;28;20250;-73
2021/12/15 15:43:12;;;;;;;10.30;7.93;;;8.70;99.90;;;;;;5050803;28;20188;-73
2021/12/15 15:45:57;;;;;;;10.40;8.68;;;8.60;99.90;;;;;;5046432;28;20311;-73